Time;durP1;ratioP1;P1;durP2;ratioP2;P2;SDS_P1;SDS_P2;PMS_P1;PMS_P2;Temp;Humidity;BMP_temperature;BMP_pressure;BME280_temperature;BME280_humidity;BME280_pressure;Samples;Min_cycle;Max_cycle;Signal;HPM_P1;HPM_P2
2023/08/19 00:00:29;;;;;;;5.2;3.3;;;;;;;;;;;;;
2023/08/19 00:02:55;;;;;;;5.4;3.2;;;;;;;;;;;;;
2023/08/19 00:05:20;;;;;;;5.8;3.2;;;;;;;;;;;;;
2023/08/19 00:07:45;;;;;;;5;3.2;;;;;;;;;;;;;
2023/08/19 00:10:10;;;;;;;7;3.4;;;;;;;;;;;;;
2023/08/19 00:12:37;;;;;;;5.8;3.1;;;;;;;;;;;;;
2023/08/19 00:15:02;;;;;;;6.1;3.2;;;;;;;;;;;;;
2023/08/19 00:17:28;;;;;;;5.6;3.2;;;;;;;;;;;;;
2023/08/19 00:19:53;;;;;;;4.1;3.1;;;;;;;;;;;;;
2023/08/19 00:22:19;;;;;;;4.5;3.4;;;;;;;;;;;;;
2023/08/19 00:24:44;;;;;;;6.1;3.4;;;;;;;;;;;;;
2023/08/19 00:27:10;;;;;;;6.4;3.8;;;;;;;;;;;;;
2023/08/19 00:29:35;;;;;;;5.4;2.7;;;;;;;;;;;;;
2023/08/19 00:32:01;;;;;;;5.3;3.3;;;;;;;;;;;;;
2023/08/19 00:34:26;;;;;;;6.1;3.1;;;;;;;;;;;;;
2023/08/19 00:36:54;;;;;;;5.9;3.4;;;;;;;;;;;;;
2023/08/19 00:39:18;;;;;;;5.9;3.4;;;;;;;;;;;;;
2023/08/19 00:41:48;;;;;;;3.9;3.3;;;;;;;;;;;;;
2023/08/19 00:44:11;;;;;;;6.7;3.2;;;;;;;;;;;;;
2023/08/19 00:46:36;;;;;;;6.6;3.2;;;;;;;;;;;;;
2023/08/19 00:49:01;;;;;;;5.7;3.6;;;;;;;;;;;;;
2023/08/19 00:51:26;;;;;;;3.7;3.2;;;;;;;;;;;;;
2023/08/19 00:53:52;;;;;;;7.8;3.6;;;;;;;;;;;;;
2023/08/19 00:56:19;;;;;;;6.1;3.2;;;;;;;;;;;;;
2023/08/19 00:58:44;;;;;;;5.1;3.5;;;;;;;;;;;;;
2023/08/19 01:01:10;;;;;;;4.9;3.2;;;;;;;;;;;;;
2023/08/19 01:03:35;;;;;;;6.2;3.6;;;;;;;;;;;;;
2023/08/19 01:06:00;;;;;;;7.5;3.6;;;;;;;;;;;;;
2023/08/19 01:08:26;;;;;;;5.9;3.7;;;;;;;;;;;;;
2023/08/19 01:10:51;;;;;;;7.4;3.2;;;;;;;;;;;;;
2023/08/19 01:13:16;;;;;;;5.4;3.2;;;;;;;;;;;;;
2023/08/19 01:15:41;;;;;;;6.2;3.6;;;;;;;;;;;;;
2023/08/19 01:18:06;;;;;;;6;3.6;;;;;;;;;;;;;
2023/08/19 01:20:32;;;;;;;8;4.4;;;;;;;;;;;;;
2023/08/19 01:22:56;;;;;;;7.3;3.5;;;;;;;;;;;;;
2023/08/19 01:25:22;;;;;;;6.7;3.6;;;;;;;;;;;;;
2023/08/19 01:27:47;;;;;;;4.6;3.3;;;;;;;;;;;;;
2023/08/19 01:30:14;;;;;;;5.2;3.5;;;;;;;;;;;;;
2023/08/19 01:32:39;;;;;;;5.2;3.5;;;;;;;;;;;;;
2023/08/19 01:35:04;;;;;;;5.9;3.7;;;;;;;;;;;;;
2023/08/19 01:37:29;;;;;;;4.2;3.3;;;;;;;;;;;;;
2023/08/19 01:39:55;;;;;;;6.1;3.5;;;;;;;;;;;;;
2023/08/19 01:42:20;;;;;;;6.3;3.7;;;;;;;;;;;;;
2023/08/19 01:44:48;;;;;;;4.6;3;;;;;;;;;;;;;
2023/08/19 01:47:13;;;;;;;6.7;3.4;;;;;;;;;;;;;
2023/08/19 01:49:38;;;;;;;5.5;3.4;;;;;;;;;;;;;
2023/08/19 01:52:03;;;;;;;6.6;4;;;;;;;;;;;;;
2023/08/19 01:54:30;;;;;;;7.9;3.8;;;;;;;;;;;;;
2023/08/19 01:56:55;;;;;;;7.3;3.6;;;;;;;;;;;;;
2023/08/19 01:59:20;;;;;;;5.8;3.6;;;;;;;;;;;;;
2023/08/19 02:01:46;;;;;;;5.9;3.2;;;;;;;;;;;;;
2023/08/19 02:04:11;;;;;;;5.7;3.2;;;;;;;;;;;;;
2023/08/19 02:06:37;;;;;;;5;3.3;;;;;;;;;;;;;
2023/08/19 02:09:03;;;;;;;7.1;3.9;;;;;;;;;;;;;
2023/08/19 02:11:28;;;;;;;4.4;3.4;;;;;;;;;;;;;
2023/08/19 02:13:53;;;;;;;4.5;3.7;;;;;;;;;;;;;
2023/08/19 02:16:18;;;;;;;5.9;3.4;;;;;;;;;;;;;
2023/08/19 02:18:46;;;;;;;6.8;3.7;;;;;;;;;;;;;
2023/08/19 02:21:11;;;;;;;7.2;3.7;;;;;;;;;;;;;
2023/08/19 02:23:37;;;;;;;5.4;3.6;;;;;;;;;;;;;
2023/08/19 02:26:02;;;;;;;5.3;3.5;;;;;;;;;;;;;
2023/08/19 02:28:28;;;;;;;5.5;3.4;;;;;;;;;;;;;
2023/08/19 02:30:53;;;;;;;8;3.7;;;;;;;;;;;;;
2023/08/19 02:33:19;;;;;;;6.7;3.9;;;;;;;;;;;;;
2023/08/19 02:35:44;;;;;;;6.8;3.4;;;;;;;;;;;;;
2023/08/19 02:38:10;;;;;;;6.6;3.8;;;;;;;;;;;;;
2023/08/19 02:40:35;;;;;;;4;3.2;;;;;;;;;;;;;
2023/08/19 02:43:01;;;;;;;4.6;3.4;;;;;;;;;;;;;
2023/08/19 02:45:27;;;;;;;6.1;3.6;;;;;;;;;;;;;
2023/08/19 02:47:52;;;;;;;5;3.3;;;;;;;;;;;;;
2023/08/19 02:50:18;;;;;;;5.8;3.5;;;;;;;;;;;;;
2023/08/19 02:52:44;;;;;;;7;4.1;;;;;;;;;;;;;
2023/08/19 02:55:09;;;;;;;5.7;3.5;;;;;;;;;;;;;
2023/08/19 02:57:36;;;;;;;5.9;3.7;;;;;;;;;;;;;
2023/08/19 03:00:01;;;;;;;5.8;3.2;;;;;;;;;;;;;
2023/08/19 03:02:26;;;;;;;7.3;5;;;;;;;;;;;;;
2023/08/19 03:04:52;;;;;;;7;4.3;;;;;;;;;;;;;
2023/08/19 03:07:19;;;;;;;4.6;3.1;;;;;;;;;;;;;
2023/08/19 03:09:44;;;;;;;4.9;4;;;;;;;;;;;;;
2023/08/19 03:12:10;;;;;;;5.7;3.6;;;;;;;;;;;;;
2023/08/19 03:14:35;;;;;;;4.5;3.3;;;;;;;;;;;;;
2023/08/19 03:17:00;;;;;;;5.6;4.1;;;;;;;;;;;;;
2023/08/19 03:19:25;;;;;;;4.3;3.5;;;;;;;;;;;;;
2023/08/19 03:21:52;;;;;;;4.1;3.3;;;;;;;;;;;;;
2023/08/19 03:24:17;;;;;;;6.4;3.2;;;;;;;;;;;;;
2023/08/19 03:26:43;;;;;;;6.8;3.3;;;;;;;;;;;;;
2023/08/19 03:29:08;;;;;;;5.5;3.9;;;;;;;;;;;;;
2023/08/19 03:31:35;;;;;;;6;3.3;;;;;;;;;;;;;
2023/08/19 03:34:00;;;;;;;5.6;3.6;;;;;;;;;;;;;
2023/08/19 03:36:26;;;;;;;4.8;3.5;;;;;;;;;;;;;
2023/08/19 03:38:51;;;;;;;5.4;3.5;;;;;;;;;;;;;
2023/08/19 03:41:16;;;;;;;6.3;3.5;;;;;;;;;;;;;
2023/08/19 03:43:41;;;;;;;7.2;3.9;;;;;;;;;;;;;
2023/08/19 03:46:08;;;;;;;4.5;3.5;;;;;;;;;;;;;
2023/08/19 03:48:33;;;;;;;8.1;3.7;;;;;;;;;;;;;
2023/08/19 03:50:59;;;;;;;5.7;3.6;;;;;;;;;;;;;
2023/08/19 03:53:24;;;;;;;5.5;3.4;;;;;;;;;;;;;
2023/08/19 03:55:49;;;;;;;8.4;3.9;;;;;;;;;;;;;
2023/08/19 03:58:14;;;;;;;5.4;3.5;;;;;;;;;;;;;
2023/08/19 04:02:31;;;;;;;5.9;3.9;;;;;;;16.47;93.70508;939.5105;;;;
2023/08/19 04:04:56;;;;;;;5;3.5;;;;;;;16.53;93.16309;939.5467;;;;
2023/08/19 04:07:21;;;;;;;4.9;3.8;;;;;;;16.47;93.0918;939.5555;;;;
2023/08/19 04:09:49;;;;;;;7;3.6;;;;;;;16.32;93.98633;939.5295;;;;
2023/08/19 04:12:14;;;;;;;6.2;3.5;;;;;;;16.14;94.81543;939.5608;;;;
2023/08/19 04:14:39;;;;;;;11.8;3.6;;;;;;;16.12;95.04004;939.5698;;;;
2023/08/19 04:17:21;;;;;;;5;3.5;;;;;;;16.2;94.82715;939.6092;;;;
2023/08/19 04:19:46;;;;;;;6.7;3.9;;;;;;;16.12;94.86719;939.6606;;;;
2023/08/19 04:22:15;;;;;;;7.1;4.6;;;;;;;16.07;94.56641;939.6772;;;;
2023/08/19 04:24:40;;;;;;;5.2;4.3;;;;;;;16.27;93.06055;939.698;;;;
2023/08/19 04:27:05;;;;;;;5.9;3.6;;;;;;;16.45;91.00195;939.7551;;;;
2023/08/19 04:29:32;;;;;;;7.9;3.4;;;;;;;16.56;89.4082;939.7988;;;;
2023/08/19 04:31:56;;;;;;;7.3;3.7;;;;;;;16.68;90.05566;939.8416;;;;
2023/08/19 04:34:21;;;;;;;5.7;3.3;;;;;;;16.82;89.83203;939.8683;;;;
2023/08/19 04:36:46;;;;;;;5.1;3.8;;;;;;;16.62;90.86621;939.874;;;;
2023/08/19 04:39:15;;;;;;;4.8;3.6;;;;;;;16.57;91.30664;939.8687;;;;
2023/08/19 04:41:43;;;;;;;7.4;3.5;;;;;;;16.58;91.35645;939.92;;;;
2023/08/19 04:44:09;;;;;;;5.2;3.6;;;;;;;16.57;91.35254;939.8984;;;;
2023/08/19 04:46:35;;;;;;;7.4;3.7;;;;;;;16.5;91.99707;939.9202;;;;
2023/08/19 04:49:00;;;;;;;5.4;3.2;;;;;;;16.62;91.68848;939.9666;;;;
2023/08/19 04:51:27;;;;;;;7.5;3.6;;;;;;;16.52;91.7832;939.9328;;;;
2023/08/19 04:53:52;;;;;;;6.2;3.6;;;;;;;16.43;92.14648;940.01;;;;
2023/08/19 04:56:19;;;;;;;5.6;3.9;;;;;;;16.25;93.31152;940.0428;;;;
2023/08/19 04:58:44;;;;;;;6.1;3.8;;;;;;;16.36;93.10352;940.0008;;;;
2023/08/19 05:01:14;;;;;;;6.5;3.6;;;;;;;16.34;93.14551;940.0226;;;;
2023/08/19 05:03:39;;;;;;;6.5;3.9;;;;;;;16.38;92.57617;940.0311;;;;
2023/08/19 05:06:06;;;;;;;7.1;4.3;;;;;;;16.41;92.76758;940.0582;;;;
2023/08/19 05:08:31;;;;;;;6.3;3.6;;;;;;;16.41;92.54785;939.9858;;;;
2023/08/19 05:10:57;;;;;;;5;3.5;;;;;;;16.4;93.40039;940.0334;;;;
2023/08/19 05:13:23;;;;;;;5.8;3.5;;;;;;;16.47;92.57031;940.0675;;;;
2023/08/19 05:15:53;;;;;;;5;3.2;;;;;;;16.48;92.34082;940.0336;;;;
2023/08/19 05:18:18;;;;;;;6.5;3.9;;;;;;;16.49;92.05566;940.0391;;;;
2023/08/19 05:20:48;;;;;;;6.6;3.5;;;;;;;16.52;91.7832;940.0517;;;;
2023/08/19 05:23:13;;;;;;;6.8;3.7;;;;;;;16.57;91.0752;940.093;;;;
2023/08/19 05:25:41;;;;;;;4.9;3.6;;;;;;;16.6;91.08203;940.0806;;;;
2023/08/19 05:28:06;;;;;;;6.1;3.6;;;;;;;16.73;90.47168;940.1329;;;;
2023/08/19 05:30:34;;;;;;;5.9;3.8;;;;;;;16.78;90.01758;940.1267;;;;
2023/08/19 05:32:59;;;;;;;4.9;3.6;;;;;;;16.99;89.0752;940.1639;;;;
2023/08/19 05:35:27;;;;;;;5.1;3.6;;;;;;;17.29;90.12305;940.1687;;;;
2023/08/19 05:37:52;;;;;;;4.3;2.7;;;;;;;18.52;80.66602;940.1297;;;;
2023/08/19 05:40:17;;;;;;;3.8;3;;;;;;;19.98;74.33008;940.0872;;;;
2023/08/19 05:42:45;;;;;;;4;2.6;;;;;;;20.69;71.5752;940.1459;;;;
2023/08/19 05:45:10;;;;;;;5.9;3;;;;;;;20.76;71.59766;940.1725;;;;
2023/08/19 05:47:37;;;;;;;6.7;2.9;;;;;;;21.47;68.75098;940.1199;;;;
2023/08/19 05:50:01;;;;;;;4.6;3;;;;;;;22.01;67.39355;940.1663;;;;
2023/08/19 05:52:28;;;;;;;5.5;3.1;;;;;;;23.04;63.09668;940.1016;;;;
2023/08/19 05:54:53;;;;;;;4.8;2.8;;;;;;;24.03;62.19043;940.1545;;;;
2023/08/19 05:57:19;;;;;;;5;2.6;;;;;;;24.21;58.19824;940.0911;;;;
2023/08/19 05:59:45;;;;;;;5.9;3.5;;;;;;;24.55;58.38379;940.101;;;;
2023/08/19 06:02:12;;;;;;;4.2;3.1;;;;;;;26.02;54.09375;940.0854;;;;
2023/08/19 06:04:37;;;;;;;5.8;3;;;;;;;25.58;54.59668;940.0485;;;;
2023/08/19 06:07:03;;;;;;;6;2.6;;;;;;;25.65;54.23828;940.0931;;;;
2023/08/19 06:09:28;;;;;;;6.6;2.7;;;;;;;26.06;52.63281;940.1266;;;;
2023/08/19 06:11:55;;;;;;;4.5;2.9;;;;;;;25.78;50.95703;940.0945;;;;
2023/08/19 06:14:20;;;;;;;5.4;2.5;;;;;;;25.08;53.21387;940.16;;;;
2023/08/19 06:16:48;;;;;;;2.8;2.3;;;;;;;24.77;53.5293;940.1475;;;;
2023/08/19 06:19:13;;;;;;;2.9;2.2;;;;;;;26.38;50.43262;940.1384;;;;
2023/08/19 06:21:38;;;;;;;2.3;2.1;;;;;;;26.39;49.13184;940.14;;;;
2023/08/19 06:24:03;;;;;;;4.8;2.7;;;;;;;26.42;49.38379;940.1527;;;;
2023/08/19 06:26:28;;;;;;;2.7;2.3;;;;;;;27.06;48.69629;940.181;;;;
2023/08/19 06:28:54;;;;;;;4.5;2.2;;;;;;;27.34;47.86035;940.1911;;;;
2023/08/19 06:31:19;;;;;;;3.2;2.3;;;;;;;26.03;50.03906;940.1395;;;;
2023/08/19 06:33:51;;;;;;;4.7;2.4;;;;;;;26.9;50.6582;940.1074;;;;
2023/08/19 06:36:16;;;;;;;3.8;2.4;;;;;;;27.81;46.34277;940.1225;;;;
2023/08/19 06:38:41;;;;;;;6.2;2.6;;;;;;;29.04;44.17188;940.0966;;;;
2023/08/19 06:41:07;;;;;;;3.3;2.3;;;;;;;30.38;41.81836;940.1273;;;;
2023/08/19 06:43:32;;;;;;;3.5;2.2;;;;;;;30.03;41.41699;940.0652;;;;
2023/08/19 06:45:58;;;;;;;4.2;2.3;;;;;;;30.3;42.95801;940.1175;;;;
2023/08/19 06:48:24;;;;;;;3.7;2.1;;;;;;;29.68;40.97949;940.13;;;;
2023/08/19 06:50:51;;;;;;;4.8;2.3;;;;;;;29.86;42.41504;940.1917;;;;
2023/08/19 06:53:16;;;;;;;4.1;2.1;;;;;;;30.07;44.24902;940.15;;;;
2023/08/19 06:55:43;;;;;;;3.4;2.3;;;;;;;29.68;42.48242;940.1284;;;;
2023/08/19 06:58:11;;;;;;;6.8;2.6;;;;;;;30.44;41.50293;940.1473;;;;
2023/08/19 07:00:36;;;;;;;3.3;2.2;;;;;;;29.75;41.33105;940.14;;;;
2023/08/19 07:03:01;;;;;;;4.8;2.1;;;;;;;29.93;42.36133;940.1357;;;;
2023/08/19 07:05:27;;;;;;;5;2.4;;;;;;;29.28;43.40918;940.0992;;;;
2023/08/19 07:07:55;;;;;;;3.8;2.2;;;;;;;30.68;41.34473;940.0396;;;;
2023/08/19 07:10:21;;;;;;;4.3;2.2;;;;;;;31.17;39.42773;940.1472;;;;
2023/08/19 07:12:48;;;;;;;5.4;2.3;;;;;;;29.46;41.59082;940.1356;;;;
2023/08/19 07:15:13;;;;;;;4.4;2.4;;;;;;;28.58;43.88867;940.1857;;;;
2023/08/19 07:17:43;;;;;;;2.8;2.2;;;;;;;28.73;45.21094;940.2061;;;;
2023/08/19 07:20:13;;;;;;;4.4;2.5;;;;;;;29.92;42.55176;940.1301;;;;
2023/08/19 07:22:37;;;;;;;4.3;2.2;;;;;;;30.23;41.94727;940.1369;;;;
2023/08/19 07:25:07;;;;;;;3.6;2.4;;;;;;;30.96;41.58594;940.1573;;;;
2023/08/19 07:27:31;;;;;;;4.6;2.3;;;;;;;30.15;41.51074;940.1369;;;;
2023/08/19 07:30:01;;;;;;;2.5;2.3;;;;;;;30.63;40.1582;940.1492;;;;
2023/08/19 07:32:26;;;;;;;2.9;2.1;;;;;;;32.53;35.77832;940.1714;;;;
2023/08/19 07:34:53;;;;;;;4;2.8;;;;;;;33.12;37.78418;940.1896;;;;
2023/08/19 07:37:18;;;;;;;2.7;2.3;;;;;;;34.07;35.93555;940.1935;;;;
2023/08/19 07:39:44;;;;;;;4.1;2.3;;;;;;;34.87;35.0459;940.1852;;;;
2023/08/19 07:42:09;;;;;;;4.6;2.4;;;;;;;34.75;32.93945;940.2106;;;;
2023/08/19 07:44:38;;;;;;;3.4;2.2;;;;;;;34.61;31.53125;940.2029;;;;
2023/08/19 07:47:04;;;;;;;4;2.2;;;;;;;34.58;31.21582;940.2164;;;;
2023/08/19 07:49:32;;;;;;;4.4;2.4;;;;;;;36.25;31.6084;940.2095;;;;
2023/08/19 07:52:01;;;;;;;4.3;2.6;;;;;;;36.39;30.93945;940.2922;;;;
2023/08/19 07:54:26;;;;;;;2.9;2.1;;;;;;;35.38;31.34277;940.2328;;;;
2023/08/19 07:56:57;;;;;;;3.4;2.5;;;;;;;36.3;29.84473;940.2612;;;;
2023/08/19 07:59:20;;;;;;;3.7;2.4;;;;;;;36.2;30.83105;940.2502;;;;
2023/08/19 08:01:45;;;;;;;3.6;2.5;;;;;;;36.09;31.68164;940.2761;;;;
2023/08/19 08:04:11;;;;;;;5.4;2.5;;;;;;;35.66;30.16602;940.2587;;;;
2023/08/19 08:06:36;;;;;;;3.6;2.5;;;;;;;35.86;31.35059;940.2205;;;;
2023/08/19 08:09:03;;;;;;;4.9;2.4;;;;;;;35.9;30.24219;940.2756;;;;
2023/08/19 08:11:27;;;;;;;3.8;2.6;;;;;;;36.32;30.85059;940.2792;;;;
2023/08/19 08:13:53;;;;;;;4.1;2.6;;;;;;;35.75;30.36523;940.2706;;;;
2023/08/19 08:16:18;;;;;;;3.7;2.4;;;;;;;36.53;32.14746;940.2892;;;;
2023/08/19 08:18:47;;;;;;;5.3;2.9;;;;;;;35.47;31.24023;940.2363;;;;
2023/08/19 08:21:14;;;;;;;4.7;2.7;;;;;;;36.58;30.63867;940.2852;;;;
2023/08/19 08:23:39;;;;;;;4.3;2.3;;;;;;;36.42;29.62305;940.2823;;;;
2023/08/19 08:26:05;;;;;;;4.1;2.4;;;;;;;34.8;32.95508;940.1845;;;;
2023/08/19 08:28:29;;;;;;;3.8;2.3;;;;;;;34.84;32.05273;940.1866;;;;
2023/08/19 08:30:56;;;;;;;2.8;2.6;;;;;;;35.18;31.59473;940.2175;;;;
2023/08/19 08:33:21;;;;;;;3.7;2.6;;;;;;;35.19;32.94727;940.1824;;;;
2023/08/19 08:35:49;;;;;;;3.2;2.3;;;;;;;34.3;33.44922;940.1674;;;;
2023/08/19 08:38:14;;;;;;;3;2.2;;;;;;;34;35.71387;940.188;;;;
2023/08/19 08:40:42;;;;;;;3.6;2.4;;;;;;;34.8;31.90625;940.1822;;;;
2023/08/19 08:43:07;;;;;;;3.9;2.3;;;;;;;35.26;32.68652;940.1186;;;;
2023/08/19 08:45:33;;;;;;;3.3;2.3;;;;;;;33.9;32.6377;940.1615;;;;
2023/08/19 08:47:57;;;;;;;2.9;2.3;;;;;;;34.21;33.85156;940.1321;;;;
2023/08/19 08:50:24;;;;;;;4.8;2.4;;;;;;;34.32;34.25781;940.0781;;;;
2023/08/19 08:52:49;;;;;;;3.8;2.6;;;;;;;35.19;33.4541;940.1067;;;;
2023/08/19 08:55:14;;;;;;;3.3;2.2;;;;;;;35.03;33.68457;940.0524;;;;
2023/08/19 08:57:42;;;;;;;3.4;2.6;;;;;;;34.74;35.46973;940.0862;;;;
2023/08/19 09:00:07;;;;;;;3.1;2.5;;;;;;;33.7;33.94629;939.981;;;;
2023/08/19 09:02:33;;;;;;;4;2.4;;;;;;;33.33;36.29883;940.0267;;;;
2023/08/19 09:04:58;;;;;;;4;2.4;;;;;;;33.46;34.90234;940.025;;;;
2023/08/19 09:07:23;;;;;;;2.9;2.6;;;;;;;33.22;34.91992;940.0012;;;;
2023/08/19 09:09:49;;;;;;;4.8;2.8;;;;;;;33.24;35.29395;940.0578;;;;
2023/08/19 09:12:14;;;;;;;3.6;2.5;;;;;;;33.27;33.40918;939.992;;;;
2023/08/19 09:14:42;;;;;;;3.8;2.7;;;;;;;32.24;37.41016;940.0291;;;;
2023/08/19 09:17:06;;;;;;;3.2;2.6;;;;;;;32.51;38.7168;940.0779;;;;
2023/08/19 09:19:32;;;;;;;3.1;2.5;;;;;;;32.17;36.57715;939.9874;;;;
2023/08/19 09:21:57;;;;;;;5.1;2.6;;;;;;;32.45;37.28418;940.0003;;;;
2023/08/19 09:24:22;;;;;;;3.3;3;;;;;;;32.01;36.76855;939.9702;;;;
2023/08/19 09:26:50;;;;;;;5.6;2.7;;;;;;;32.16;36.87695;940.0073;;;;
2023/08/19 09:29:15;;;;;;;4.3;2.7;;;;;;;32.06;38.48633;939.9966;;;;
2023/08/19 09:31:40;;;;;;;4;2.8;;;;;;;31.54;38.20313;939.9309;;;;
2023/08/19 09:34:05;;;;;;;5.6;2.8;;;;;;;31.88;37.93262;939.92;;;;
2023/08/19 09:36:31;;;;;;;5.1;2.8;;;;;;;31.87;38.25488;939.9487;;;;
2023/08/19 09:38:56;;;;;;;4;2.8;;;;;;;31.84;38.94727;939.9653;;;;
2023/08/19 09:41:21;;;;;;;5.2;2.5;;;;;;;31.8;38.12891;939.9166;;;;
2023/08/19 09:43:48;;;;;;;8.7;2.6;;;;;;;31.74;38.00488;939.9014;;;;
2023/08/19 09:46:13;;;;;;;6;2.6;;;;;;;32;37.83398;939.8743;;;;
2023/08/19 09:48:39;;;;;;;5;2.9;;;;;;;31.67;37.53125;939.8639;;;;
2023/08/19 09:51:04;;;;;;;6.7;2.5;;;;;;;31.64;38.10449;939.8622;;;;
2023/08/19 09:53:31;;;;;;;5.4;2.4;;;;;;;31.52;37.96191;939.8111;;;;
2023/08/19 09:55:55;;;;;;;6.9;2.8;;;;;;;32.02;36.33789;939.8329;;;;
2023/08/19 09:58:20;;;;;;;4.1;2.2;;;;;;;32.09;33.92188;939.8318;;;;
2023/08/19 10:00:45;;;;;;;4.4;2.2;;;;;;;32.08;37.07422;939.8183;;;;
2023/08/19 10:03:11;;;;;;;6.1;2.8;;;;;;;31.8;33.43359;939.9102;;;;
2023/08/19 10:05:36;;;;;;;4.2;2.2;;;;;;;32.04;34.18164;939.851;;;;
2023/08/19 10:08:03;;;;;;;5.7;2.5;;;;;;;32.43;35.97461;939.9147;;;;
2023/08/19 10:10:28;;;;;;;3.8;2.5;;;;;;;32.79;36.20801;939.9182;;;;
2023/08/19 10:12:55;;;;;;;3.9;2.5;;;;;;;32.87;36.43066;939.884;;;;
2023/08/19 10:15:19;;;;;;;3.2;2.4;;;;;;;33.11;33.83008;939.8867;;;;
2023/08/19 10:17:45;;;;;;;5.5;2.4;;;;;;;33.18;39.72266;939.897;;;;
2023/08/19 10:22:36;;;;;;;5.5;2.3;;;;;;;33.83;34.13574;939.8777;;;;
2023/08/19 10:25:03;;;;;;;7.1;2.7;;;;;;;33.77;36.16504;939.8987;;;;
2023/08/19 10:27:27;;;;;;;4.6;2.7;;;;;;;33.72;35.82422;939.8547;;;;
2023/08/19 10:29:52;;;;;;;4;2;;;;;;;34.05;31.92578;939.8469;;;;
2023/08/19 10:32:20;;;;;;;2.6;2;;;;;;;34.68;30.88477;939.8625;;;;
2023/08/19 10:34:45;;;;;;;4.2;2.4;;;;;;;35.07;31.65918;939.8831;;;;
2023/08/19 10:37:13;;;;;;;6.7;2.3;;;;;;;34.66;32.42578;939.8194;;;;
2023/08/19 10:39:38;;;;;;;4.7;2.8;;;;;;;35.23;31.53809;939.8278;;;;
2023/08/19 10:42:03;;;;;;;6;2;;;;;;;35.66;28.31738;939.8326;;;;
2023/08/19 10:44:31;;;;;;;3.6;2;;;;;;;36.09;27.82422;939.8764;;;;
2023/08/19 10:46:55;;;;;;;4.2;2.3;;;;;;;36.71;29.72656;939.843;;;;
2023/08/19 10:49:21;;;;;;;5.4;2.4;;;;;;;37.29;29.88574;939.8453;;;;
2023/08/19 10:51:45;;;;;;;3.6;2.2;;;;;;;38.23;27.28613;939.7651;;;;
2023/08/19 10:54:10;;;;;;;4.5;2.4;;;;;;;38.38;27.4043;939.7239;;;;
2023/08/19 10:56:35;;;;;;;6.7;2.3;;;;;;;39.46;26.66406;939.7882;;;;
2023/08/19 10:59:00;;;;;;;4.9;2.4;;;;;;;40.25;26.75879;939.8262;;;;
2023/08/19 11:01:27;;;;;;;2.8;2;;;;;;;38.77;28.37598;939.7732;;;;
2023/08/19 11:03:55;;;;;;;4.6;2.5;;;;;;;39.49;26.70313;939.759;;;;
2023/08/19 11:06:21;;;;;;;5.1;2.7;;;;;;;39.52;26.60742;939.8195;;;;
2023/08/19 11:08:47;;;;;;;2.7;2.1;;;;;;;39.52;27.25293;939.8145;;;;
2023/08/19 11:11:13;;;;;;;3;1.9;;;;;;;39.76;25.73047;939.8157;;;;
2023/08/19 11:13:38;;;;;;;3.7;2;;;;;;;40.38;24.72852;939.8524;;;;
2023/08/19 11:16:05;;;;;;;4.2;2.1;;;;;;;40.49;23.68457;939.8118;;;;
2023/08/19 11:18:40;;;;;;;4.6;2.5;;;;;;;41.05;23.94531;939.8513;;;;
2023/08/19 11:21:09;;;;;;;3.4;1.9;;;;;;;41.53;24.3125;939.8236;;;;
2023/08/19 11:23:34;;;;;;;4.5;2.2;;;;;;;40.98;24.75977;939.8108;;;;
2023/08/19 11:26:00;;;;;;;2.6;1.9;;;;;;;41.16;25.4668;939.7896;;;;
2023/08/19 11:28:25;;;;;;;6.3;2.2;;;;;;;41.78;23.70117;939.7971;;;;
2023/08/19 11:30:50;;;;;;;3.3;2;;;;;;;41.76;24.14063;939.8417;;;;
2023/08/19 11:33:18;;;;;;;5.8;2.2;;;;;;;41.95;24.66504;939.8025;;;;
2023/08/19 11:35:40;;;;;;;5;2.4;;;;;;;41.91;27.06348;939.8578;;;;
2023/08/19 11:38:06;;;;;;;4.5;2.2;;;;;;;41.91;25.18945;939.8215;;;;
2023/08/19 11:40:31;;;;;;;4.7;2.6;;;;;;;42.45;25.5498;939.8472;;;;
2023/08/19 11:42:58;;;;;;;3.4;2.3;;;;;;;41.64;26.01953;939.8591;;;;
2023/08/19 11:45:23;;;;;;;4.3;2.3;;;;;;;41.75;24.93652;939.8295;;;;
2023/08/19 11:47:48;;;;;;;3.6;2.2;;;;;;;41.87;25.46875;939.8942;;;;
2023/08/19 11:50:13;;;;;;;4.8;2.2;;;;;;;42.16;24.40723;939.8727;;;;
2023/08/19 11:52:40;;;;;;;5.9;2.1;;;;;;;43.18;23.30566;939.9199;;;;
2023/08/19 11:55:06;;;;;;;4.6;2;;;;;;;42.99;22.2041;939.8851;;;;
2023/08/19 11:57:34;;;;;;;5.7;2.3;;;;;;;43.26;22.29102;939.8976;;;;
2023/08/19 11:59:59;;;;;;;5.2;2.3;;;;;;;43.31;22.49023;939.9144;;;;
2023/08/19 12:02:30;;;;;;;4.2;2.1;;;;;;;43.31;22.48926;939.8953;;;;
2023/08/19 12:04:56;;;;;;;4.7;1.9;;;;;;;42.79;23.21289;939.9183;;;;
2023/08/19 12:07:21;;;;;;;5.6;2.2;;;;;;;41.42;23.59668;939.8965;;;;
2023/08/19 12:09:47;;;;;;;4.4;2;;;;;;;40.54;24.3584;939.9005;;;;
2023/08/19 12:12:13;;;;;;;4.6;1.9;;;;;;;42.23;23.6748;939.8585;;;;
2023/08/19 12:14:37;;;;;;;5.5;1.8;;;;;;;41.28;24.38477;939.8787;;;;
2023/08/19 12:17:04;;;;;;;4.3;2.2;;;;;;;40.9;25.85547;939.8915;;;;
2023/08/19 12:19:27;;;;;;;4.3;2.3;;;;;;;40.38;26.7666;939.8875;;;;
2023/08/19 12:21:53;;;;;;;9;2.7;;;;;;;40.09;26.48145;939.8122;;;;
2023/08/19 12:24:18;;;;;;;5.6;2.4;;;;;;;41.37;24.46289;939.8586;;;;
2023/08/19 12:26:46;;;;;;;5.1;2.6;;;;;;;41.09;25.1084;939.873;;;;
2023/08/19 12:29:10;;;;;;;6.3;2.5;;;;;;;41.8;24.80469;939.884;;;;
2023/08/19 12:31:36;;;;;;;5.1;1.9;;;;;;;40.87;26.16016;939.8748;;;;
2023/08/19 12:34:02;;;;;;;5;2.4;;;;;;;41.12;26.94434;939.853;;;;
2023/08/19 12:36:30;;;;;;;4.4;2.1;;;;;;;39.45;27.11426;939.8038;;;;
2023/08/19 12:38:55;;;;;;;6;2.8;;;;;;;38.82;28.19629;939.7498;;;;
2023/08/19 12:41:22;;;;;;;5.4;2.2;;;;;;;38.54;28.36133;939.772;;;;
2023/08/19 12:44:07;;;;;;;4;2;;;;;;;38.72;27.99609;939.7688;;;;
2023/08/19 12:46:34;;;;;;;6;2.4;;;;;;;37.63;29.75;939.7459;;;;
2023/08/19 12:48:59;;;;;;;6.4;2.6;;;;;;;37.26;29.08301;939.728;;;;
2023/08/19 12:51:25;;;;;;;7.8;2.3;;;;;;;36.48;31.95117;939.7252;;;;
2023/08/19 12:53:50;;;;;;;5.7;2.3;;;;;;;36.2;34.29004;939.6537;;;;
2023/08/19 12:56:16;;;;;;;5.1;2.4;;;;;;;35.48;33.77637;939.7014;;;;
2023/08/19 12:58:41;;;;;;;3.8;1.9;;;;;;;35.26;33.24121;939.6599;;;;
2023/08/19 13:01:07;;;;;;;4;2.4;;;;;;;35.06;35.375;939.6969;;;;
2023/08/19 13:03:32;;;;;;;6.3;2.4;;;;;;;35.15;33.35449;939.6879;;;;
2023/08/19 13:06:01;;;;;;;5.1;2.4;;;;;;;34.69;34.91309;939.6581;;;;
2023/08/19 13:08:27;;;;;;;4.9;2.4;;;;;;;34.6;36.83398;939.6559;;;;
2023/08/19 13:10:52;;;;;;;5.9;2.5;;;;;;;34.39;35.48047;939.6591;;;;
2023/08/19 13:13:17;;;;;;;5.8;2.6;;;;;;;34.5;36.94629;939.6732;;;;
2023/08/19 13:15:42;;;;;;;6.2;2.3;;;;;;;34.73;37.21777;939.6647;;;;
2023/08/19 13:18:31;;;;;;;4.1;2.4;;;;;;;34.78;36.07617;939.6465;;;;
2023/08/19 13:20:57;;;;;;;6.9;2.9;;;;;;;34.88;36.27734;939.6733;;;;
2023/08/19 13:23:22;;;;;;;4.8;2.2;;;;;;;34.95;36.54785;939.6553;;;;
2023/08/19 13:25:49;;;;;;;3.1;2.1;;;;;;;34.88;35.55371;939.6177;;;;
2023/08/19 13:28:14;;;;;;;4.5;2.3;;;;;;;34.96;35.78906;939.6345;;;;
2023/08/19 13:30:42;;;;;;;5.8;2.2;;;;;;;34.99;36.08105;939.6854;;;;
2023/08/19 13:33:07;;;;;;;4.1;2.1;;;;;;;35.09;35.01465;939.6414;;;;
2023/08/19 13:35:38;;;;;;;4.1;2.2;;;;;;;34.71;35.5166;939.6785;;;;
2023/08/19 13:38:02;;;;;;;4.3;2.1;;;;;;;34.7;35.63672;939.6253;;;;
2023/08/19 13:40:30;;;;;;;4.2;2.4;;;;;;;34.23;37.30957;939.7048;;;;
2023/08/19 13:42:55;;;;;;;5.5;2.5;;;;;;;34.16;37.0625;939.6488;;;;
2023/08/19 13:45:20;;;;;;;4.2;2.2;;;;;;;34.29;35.44727;939.6627;;;;
2023/08/19 13:47:45;;;;;;;5.6;2.2;;;;;;;34.53;35.00781;939.6982;;;;
2023/08/19 13:50:12;;;;;;;4.8;2.7;;;;;;;34.53;34.23633;939.6756;;;;
2023/08/19 13:52:38;;;;;;;4.5;2.4;;;;;;;34.44;34.71191;939.71;;;;
2023/08/19 13:55:09;;;;;;;5.5;2.4;;;;;;;34.23;34.8877;939.6838;;;;
2023/08/19 13:57:38;;;;;;;3.7;2.1;;;;;;;34.09;34.70996;939.6899;;;;
2023/08/19 14:00:10;;;;;;;5.2;1.9;;;;;;;34.17;34.51172;939.6696;;;;
2023/08/19 14:02:31;;;;;;;6.7;2.4;;;;;;;33.95;35.33691;939.7551;;;;
2023/08/19 14:05:01;;;;;;;5.6;2.8;;;;;;;33.86;34.47559;939.6855;;;;
2023/08/19 14:07:26;;;;;;;3.9;2.2;;;;;;;33.71;35.94434;939.6916;;;;
2023/08/19 14:09:54;;;;;;;6.1;2.2;;;;;;;33.73;35.64453;939.6947;;;;
2023/08/19 14:12:19;;;;;;;5.4;2.1;;;;;;;33.61;35.31055;939.7086;;;;
2023/08/19 14:14:45;;;;;;;6.8;2.2;;;;;;;33.54;35.46094;939.6392;;;;
2023/08/19 14:17:10;;;;;;;4.7;2.2;;;;;;;33.62;35.37109;939.6603;;;;
2023/08/19 14:19:36;;;;;;;5.8;2.1;;;;;;;33.51;35.97559;939.6841;;;;
2023/08/19 14:22:01;;;;;;;7.6;2.1;;;;;;;33.43;34.94824;939.6797;;;;
2023/08/19 14:24:27;;;;;;;3.1;1.9;;;;;;;33.11;35.7998;939.6939;;;;
2023/08/19 14:26:53;;;;;;;6.7;2.2;;;;;;;33.06;36.28906;939.6578;;;;
2023/08/19 14:29:19;;;;;;;4.4;2.1;;;;;;;32.98;35.8252;939.6786;;;;
2023/08/19 14:31:45;;;;;;;7.4;2.3;;;;;;;32.98;36.49805;939.6555;;;;
2023/08/19 14:34:10;;;;;;;4.5;2.9;;;;;;;33.09;34.74121;939.6086;;;;
2023/08/19 14:36:35;;;;;;;4.7;2.5;;;;;;;33.05;35.77148;939.6628;;;;
2023/08/19 14:39:04;;;;;;;4.5;2.3;;;;;;;32.93;35.20996;939.7104;;;;
2023/08/19 14:41:29;;;;;;;6.2;2.6;;;;;;;32.81;35.50098;939.6655;;;;
2023/08/19 14:43:55;;;;;;;6.7;2.6;;;;;;;32.66;35.52441;939.6668;;;;
2023/08/19 14:46:20;;;;;;;6.2;2.4;;;;;;;32.68;36.33105;939.6507;;;;
2023/08/19 14:48:47;;;;;;;4;2.5;;;;;;;32.84;36.9082;939.7346;;;;
2023/08/19 14:51:11;;;;;;;4.5;2;;;;;;;32.7;36.44043;939.6974;;;;
2023/08/19 14:53:38;;;;;;;5.5;2.6;;;;;;;32.65;36.2207;939.7322;;;;
2023/08/19 14:56:02;;;;;;;5.5;2.6;;;;;;;32.61;35.18457;939.6786;;;;
2023/08/19 14:58:29;;;;;;;6;2.6;;;;;;;32.58;35.60352;939.7075;;;;
2023/08/19 15:00:54;;;;;;;7.4;2.7;;;;;;;32.33;36.02734;939.7688;;;;
2023/08/19 15:03:20;;;;;;;4.9;2.2;;;;;;;32.24;37.08691;939.7673;;;;
2023/08/19 15:05:45;;;;;;;5.1;2.5;;;;;;;32.15;37.75;939.8096;;;;
2023/08/19 15:08:11;;;;;;;4.9;2.2;;;;;;;32.05;38.18652;939.8133;;;;
2023/08/19 15:10:36;;;;;;;5.2;2.9;;;;;;;31.89;37.31055;939.8348;;;;
2023/08/19 15:13:04;;;;;;;4.1;2.1;;;;;;;31.73;38.12305;939.9048;;;;
2023/08/19 15:15:29;;;;;;;7.3;2.9;;;;;;;31.59;38.42285;939.8967;;;;
2023/08/19 15:17:54;;;;;;;5.5;2.4;;;;;;;31.52;38.22559;939.9191;;;;
2023/08/19 15:20:19;;;;;;;4.3;2.2;;;;;;;31.51;38.33203;939.9383;;;;
2023/08/19 15:22:48;;;;;;;5.6;2.6;;;;;;;31.57;39.22266;939.9091;;;;
2023/08/19 15:25:13;;;;;;;5.8;2.5;;;;;;;31.61;39.16699;939.937;;;;
2023/08/19 15:27:42;;;;;;;7.6;2.7;;;;;;;31.45;39.6084;939.8494;;;;
2023/08/19 15:30:07;;;;;;;6.2;2.6;;;;;;;31.56;39.67676;939.913;;;;
2023/08/19 15:32:33;;;;;;;9;2.9;;;;;;;31.62;40.7373;939.9305;;;;
2023/08/19 15:34:58;;;;;;;4.9;2.2;;;;;;;31.69;40.3584;939.9412;;;;